Time;durP1;ratioP1;P1;durP2;ratioP2;P2;SDS_P1;SDS_P2;PMS_P1;PMS_P2;Temp;Humidity;BMP_temperature;BMP_pressure;BME280_temperature;BME280_humidity;BME280_pressure;Samples;Min_cycle;Max_cycle;Signal;HPM_P1;HPM_P2
2024/01/01 00:01:17;;;;;;;2.80;1.55;;;;;;;7.24;61.56;98723.63;10522368;28;20048;-64
2024/01/01 00:06:19;;;;;;;6.95;3.05;;;;;;;7.26;60.93;98729.56;10522332;28;20051;-65
2024/01/01 00:11:22;;;;;;;4.30;1.75;;;;;;;7.17;61.02;98721.44;10521380;28;20044;-64
2024/01/01 00:16:24;;;;;;;2.42;1.13;;;;;;;7.03;61.35;98724.09;10520386;28;20132;-65
2024/01/01 00:21:27;;;;;;;3.53;1.25;;;;;;;7.14;61.26;98719.00;10521699;28;20123;-64
2024/01/01 00:26:29;;;;;;;3.72;1.40;;;;;;;7.17;61.15;98713.63;10521704;28;20040;-64
2024/01/01 00:31:36;;;;;;;4.32;1.55;;;;;;;7.30;61.06;98723.22;10521482;28;20547;-65
2024/01/01 00:36:38;;;;;;;3.65;1.52;;;;;;;7.27;61.49;98719.06;10519709;28;20052;-64
2024/01/01 00:41:40;;;;;;;4.72;1.40;;;;;;;7.25;61.72;98722.69;10519899;28;20411;-64
2024/01/01 00:46:42;;;;;;;3.38;1.30;;;;;;;7.26;61.90;98720.00;10502851;28;20575;-64
2024/01/01 00:51:44;;;;;;;2.78;2.00;;;;;;;7.25;62.07;98710.53;10502119;28;20101;-64
2024/01/01 00:56:46;;;;;;;3.75;1.48;;;;;;;7.31;61.84;98724.88;10520566;28;20145;-64
2024/01/01 01:01:49;;;;;;;3.67;1.58;;;;;;;7.22;61.70;98717.69;10518961;28;20102;-65
2024/01/01 01:06:52;;;;;;;3.60;1.98;;;;;;;7.23;61.46;98722.78;10519889;28;20055;-64
2024/01/01 01:11:54;;;;;;;5.32;1.60;;;;;;;7.26;61.39;98729.56;10519087;28;20052;-63
2024/01/01 01:16:56;;;;;;;4.80;1.42;;;;;;;7.38;60.93;98737.41;10535910;27;20499;-64
2024/01/01 01:21:59;;;;;;;4.65;1.65;;;;;;;7.45;60.70;98737.84;10519327;28;20051;-64
2024/01/01 01:27:02;;;;;;;4.78;1.33;;;;;;;7.51;60.71;98743.44;10500956;28;20056;-64
2024/01/01 01:32:05;;;;;;;4.45;1.80;;;;;;;7.51;60.45;98745.25;10514325;28;20048;-64
2024/01/01 01:37:07;;;;;;;2.95;1.55;;;;;;;7.57;60.24;98753.44;10518327;28;20052;-65
2024/01/01 01:42:09;;;;;;;4.22;1.92;;;;;;;7.57;60.22;98761.25;10517940;28;20047;-65
2024/01/01 01:47:12;;;;;;;6.10;1.63;;;;;;;7.64;59.84;98759.09;10500679;28;20101;-65
2024/01/01 01:52:15;;;;;;;4.93;2.20;;;;;;;7.73;59.76;98764.50;10514927;28;20056;-65
2024/01/01 01:57:18;;;;;;;2.25;1.17;;;;;;;7.75;59.62;98749.63;10496472;28;20135;-64
2024/01/01 02:02:22;;;;;;;1.80;1.05;;;;;;;7.56;59.47;98749.19;10481944;28;20098;-64
2024/01/01 02:07:24;;;;;;;3.63;1.30;;;;;;;7.47;59.62;98759.38;10500362;28;20052;-64
2024/01/01 02:12:27;;;;;;;4.43;1.60;;;;;;;7.57;59.45;98757.84;10497470;28;20051;-64
2024/01/01 02:17:29;;;;;;;2.10;1.40;;;;;;;7.57;59.33;98758.66;10497485;28;20044;-64
2024/01/01 02:22:38;;;;;;;6.15;2.25;;;;;;;7.54;59.00;98753.66;10517184;28;20504;-64
2024/01/01 02:27:41;;;;;;;4.13;1.73;;;;;;;7.54;59.23;98748.47;10492691;28;20037;-64
2024/01/01 02:32:43;;;;;;;2.15;1.30;;;;;;;7.47;59.43;98744.59;10497637;28;20048;-65
2024/01/01 02:37:46;;;;;;;3.90;1.13;;;;;;;7.21;58.79;98753.25;10511001;28;20508;-64
2024/01/01 02:42:49;;;;;;;2.20;1.10;;;;;;;7.17;58.78;98752.63;10515190;28;20184;-64
2024/01/01 02:47:51;;;;;;;3.13;1.10;;;;;;;6.97;58.98;98742.69;10530559;28;20072;-65
2024/01/01 02:52:53;;;;;;;5.03;1.63;;;;;;;6.96;58.97;98746.19;10509282;28;20048;-65
2024/01/01 02:57:55;;;;;;;3.05;0.90;;;;;;;7.11;58.93;98739.19;10490603;28;20059;-65
2024/01/01 03:02:57;;;;;;;3.50;1.10;;;;;;;7.18;58.94;98735.28;10491084;28;20114;-65
2024/01/01 03:07:59;;;;;;;4.55;1.10;;;;;;;7.22;58.64;98721.13;10492899;28;20048;-65
2024/01/01 03:13:02;;;;;;;3.97;1.25;;;;;;;7.27;58.45;98726.00;10508999;28;20476;-65
2024/01/01 03:18:05;;;;;;;3.83;1.45;;;;;;;6.99;58.37;98716.59;10511335;28;20496;-65
2024/01/01 03:23:07;;;;;;;5.32;1.50;;;;;;;7.03;58.15;98725.84;10494334;28;20048;-65
2024/01/01 03:28:09;;;;;;;3.83;1.50;;;;;;;6.98;58.52;98739.13;10508381;28;20058;-65
2024/01/01 03:33:12;;;;;;;5.13;1.20;;;;;;;6.99;58.04;98743.41;10493886;28;20476;-65
2024/01/01 03:38:14;;;;;;;1.65;0.70;;;;;;;7.22;58.25;98741.09;10513784;28;20048;-65
2024/01/01 03:43:16;;;;;;;4.30;1.17;;;;;;;7.15;58.22;98741.50;10494563;28;20055;-65
2024/01/01 03:48:18;;;;;;;6.53;1.40;;;;;;;7.12;58.23;98735.66;10492251;28;20044;-64
2024/01/01 03:53:20;;;;;;;3.67;1.27;;;;;;;7.07;58.02;98722.13;10498080;28;20040;-64
2024/01/01 03:58:23;;;;;;;3.72;1.35;;;;;;;7.04;58.11;98728.34;10521388;28;20564;-64
2024/01/01 04:03:24;;;;;;;4.53;1.20;;;;;;;6.97;58.24;98741.84;10519873;28;20066;-65
2024/01/01 04:08:27;;;;;;;2.50;1.23;;;;;;;7.08;58.00;98757.59;10497290;28;20074;-65
2024/01/01 04:13:29;;;;;;;6.10;1.60;;;;;;;7.07;58.10;98748.97;10513869;28;20507;-65
2024/01/01 04:18:31;;;;;;;5.03;1.17;;;;;;;7.06;58.10;98752.47;10520560;28;20493;-64
2024/01/01 04:23:33;;;;;;;2.45;1.27;;;;;;;7.01;58.34;98745.91;10520215;28;20066;-65
2024/01/01 04:28:35;;;;;;;2.40;1.00;;;;;;;6.99;58.18;98752.97;10521116;28;20047;-64
2024/01/01 04:33:37;;;;;;;7.07;1.83;;;;;;;6.86;58.23;98754.66;10519676;28;20048;-65
2024/01/01 04:38:39;;;;;;;1.38;1.05;;;;;;;6.96;58.23;98760.94;10536342;27;20051;-65
2024/01/01 04:43:41;;;;;;;2.30;0.90;;;;;;;7.10;57.98;98760.94;10520405;28;20112;-65
2024/01/01 04:48:43;;;;;;;3.67;1.50;;;;;;;7.00;57.93;98746.81;10519666;28;20052;-65
2024/01/01 04:53:45;;;;;;;3.08;1.00;;;;;;;6.91;57.58;98743.06;10517527;28;20082;-64
2024/01/01 04:58:47;;;;;;;5.57;1.75;;;;;;;6.81;57.76;98773.16;10518698;28;20044;-64
2024/01/01 05:03:49;;;;;;;2.10;0.75;;;;;;;6.77;57.99;98765.66;10497923;28;20047;-66
2024/01/01 05:08:51;;;;;;;6.25;1.52;;;;;;;6.61;58.25;98772.75;10519383;28;20043;-65
2024/01/01 05:13:53;;;;;;;3.65;1.50;;;;;;;6.68;58.16;98772.25;10518835;28;20046;-65
2024/01/01 05:18:55;;;;;;;6.60;1.40;;;;;;;6.77;57.69;98781.25;10518361;28;20077;-65
2024/01/01 05:23:57;;;;;;;4.45;1.25;;;;;;;6.80;57.65;98776.69;10500058;28;20450;-65
2024/01/01 05:28:59;;;;;;;3.03;0.90;;;;;;;6.78;57.89;98793.28;10518886;28;20389;-65
2024/01/01 05:34:02;;;;;;;4.38;1.40;;;;;;;6.92;57.64;98795.88;10516975;28;20559;-65
2024/01/01 05:39:04;;;;;;;3.45;1.02;;;;;;;6.80;57.64;98807.03;10517711;28;20500;-65
2024/01/01 05:44:06;;;;;;;3.28;0.98;;;;;;;6.76;57.41;98801.19;10518107;28;20048;-65
2024/01/01 05:49:08;;;;;;;2.42;0.80;;;;;;;6.76;57.67;98797.75;10517450;28;20040;-65
2024/01/01 05:54:10;;;;;;;5.35;1.20;;;;;;;6.72;57.57;98797.13;10499958;28;20152;-65
2024/01/01 05:59:12;;;;;;;5.03;1.63;;;;;;;6.69;57.32;98805.13;10499563;28;20251;-65
2024/01/01 06:04:14;;;;;;;5.38;1.48;;;;;;;6.87;57.57;98811.75;10516800;28;20480;-65
2024/01/01 06:09:16;;;;;;;7.97;1.58;;;;;;;6.98;57.42;98808.47;10516702;28;20044;-66
2024/01/01 06:14:18;;;;;;;8.23;2.05;;;;;;;6.87;57.31;98816.13;10515638;28;20039;-64
2024/01/01 06:19:20;;;;;;;5.20;2.17;;;;;;;6.87;57.41;98816.13;10516585;28;20526;-65
2024/01/01 06:24:23;;;;;;;5.32;1.88;;;;;;;6.86;57.11;98822.22;10514557;28;20515;-66
2024/01/01 06:29:27;;;;;;;6.07;1.45;;;;;;;6.74;56.67;98828.19;10516295;28;20470;-65
2024/01/01 06:34:29;;;;;;;3.50;1.38;;;;;;;6.67;56.98;98822.56;10515049;28;20587;-65
2024/01/01 06:39:31;;;;;;;5.07;1.05;;;;;;;6.66;57.01;98838.22;10515168;28;20056;-66
2024/01/01 06:44:33;;;;;;;2.42;1.17;;;;;;;6.59;56.71;98839.53;10515916;28;20039;-66
2024/01/01 06:49:35;;;;;;;9.27;1.58;;;;;;;6.56;56.90;98852.69;10513769;28;20093;-65
2024/01/01 06:54:41;;;;;;;7.93;2.10;;;;;;;6.53;56.78;98858.09;10495136;28;20068;-65
2024/01/01 06:59:43;;;;;;;11.15;1.75;;;;;;;6.62;56.70;98865.31;10513708;28;20049;-66
2024/01/01 07:04:45;;;;;;;2.95;1.50;;;;;;;6.67;56.98;98848.53;10514868;28;20044;-65
2024/01/01 07:09:47;;;;;;;2.55;0.82;;;;;;;6.46;57.78;98867.16;10514831;28;20400;-66
2024/01/01 07:14:50;;;;;;;5.15;1.20;;;;;;;6.31;58.39;98887.94;10514628;28;20143;-66
2024/01/01 07:19:52;;;;;;;1.60;1.25;;;;;;;6.27;58.77;98876.06;10514933;28;20040;-66
2024/01/01 07:24:55;;;;;;;4.22;2.08;;;;;;;6.21;59.15;98880.72;10519737;28;20052;-65
2024/01/01 07:29:57;;;;;;;3.30;1.35;;;;;;;6.19;59.15;98891.22;10522397;28;20047;-65
2024/01/01 07:34:59;;;;;;;2.75;1.20;;;;;;;6.10;59.57;98889.13;10522450;28;20052;-66
2024/01/01 07:40:02;;;;;;;6.82;1.42;;;;;;;6.06;59.98;98898.03;10522858;28;20083;-65
2024/01/01 07:45:04;;;;;;;5.13;1.10;;;;;;;6.07;60.01;98909.25;10503191;28;20055;-65
2024/01/01 07:50:07;;;;;;;4.90;1.02;;;;;;;6.08;59.89;98906.56;10498373;28;20526;-65
2024/01/01 07:55:11;;;;;;;7.90;1.40;;;;;;;6.13;59.69;98904.56;10521116;28;20054;-65
2024/01/01 08:00:13;;;;;;;7.97;1.20;;;;;;;6.10;59.86;98907.31;10518861;28;20040;-65
2024/01/01 08:05:15;;;;;;;4.65;1.85;;;;;;;6.17;59.67;98898.25;10521886;28;20048;-64
2024/01/01 08:10:17;;;;;;;3.35;1.35;;;;;;;6.23;59.29;98899.66;10520873;28;20036;-66
2024/01/01 08:15:19;;;;;;;1.75;0.95;;;;;;;6.32;59.16;98906.94;10521370;28;20048;-64
2024/01/01 08:20:21;;;;;;;4.63;1.42;;;;;;;6.35;58.97;98909.34;10520978;28;20378;-65
2024/01/01 08:25:23;;;;;;;3.78;1.10;;;;;;;6.69;58.48;98908.19;10520711;28;20063;-65
2024/01/01 08:30:25;;;;;;;5.63;1.38;;;;;;;6.82;57.86;98909.97;10520517;28;20051;-65
2024/01/01 08:35:27;;;;;;;4.60;1.55;;;;;;;6.96;57.86;98922.09;10517815;28;20055;-65
2024/01/01 08:40:29;;;;;;;2.40;1.30;;;;;;;7.26;57.49;98915.03;10519599;28;20058;-65
2024/01/01 08:45:31;;;;;;;6.35;1.52;;;;;;;7.41;56.83;98919.25;10519951;28;20044;-65
2024/01/01 08:50:33;;;;;;;7.82;1.98;;;;;;;7.42;56.88;98926.16;10519320;28;20048;-65
2024/01/01 08:55:36;;;;;;;12.02;1.40;;;;;;;7.43;56.74;98930.41;10519255;28;20135;-66
2024/01/01 09:00:38;;;;;;;6.85;1.45;;;;;;;7.59;56.54;98933.72;10519336;28;20504;-65
2024/01/01 09:05:40;;;;;;;7.80;1.48;;;;;;;7.66;56.23;98927.19;10519185;28;20044;-64
2024/01/01 09:10:42;;;;;;;11.73;1.10;;;;;;;7.51;56.17;98927.34;10519056;28;20036;-65
2024/01/01 09:15:44;;;;;;;4.80;1.77;;;;;;;7.84;56.13;98927.78;10519694;28;20123;-66
2024/01/01 09:20:46;;;;;;;4.32;1.52;;;;;;;7.95;55.43;98928.78;10505579;28;20056;-66
2024/01/01 09:25:50;;;;;;;4.60;1.63;;;;;;;7.98;55.51;98949.38;10495621;28;20044;-66
2024/01/01 09:30:54;;;;;;;5.25;1.33;;;;;;;7.82;55.76;98953.91;10493741;28;20155;-65
2024/01/01 09:35:56;;;;;;;8.55;1.67;;;;;;;7.78;55.98;98965.44;10507289;28;20079;-66
2024/01/01 09:40:58;;;;;;;3.17;1.88;;;;;;;7.80;55.67;98981.81;10513561;28;20048;-68
2024/01/01 09:46:00;;;;;;;3.55;1.13;;;;;;;7.87;55.78;98974.44;10513565;28;20108;-68
2024/01/01 09:51:03;;;;;;;2.35;1.00;;;;;;;7.94;55.44;98986.97;10494302;28;20097;-68
2024/01/01 09:56:06;;;;;;;6.53;1.35;;;;;;;7.86;55.70;98991.81;10513261;28;20055;-68
2024/01/01 10:01:12;;;;;;;4.32;1.10;;;;;;;7.71;55.74;99003.19;10513222;28;20640;-68
2024/01/01 10:06:15;;;;;;;4.47;1.08;;;;;;;7.92;55.36;99006.22;10494785;28;20048;-68
2024/01/01 10:11:20;;;;;;;4.35;1.10;;;;;;;7.93;54.72;99005.28;10512403;28;20044;-68
2024/01/01 10:16:27;;;;;;;4.10;1.33;;;;;;;7.85;54.50;98991.94;10512236;28;20071;-69
2024/01/01 10:21:37;;;;;;;3.72;0.95;;;;;;;8.01;54.63;98993.47;10509563;28;20145;-68
2024/01/01 10:26:47;;;;;;;2.70;0.90;;;;;;;7.97;54.35;98996.34;10511899;28;20530;-69
2024/01/01 10:31:49;;;;;;;2.25;0.90;;;;;;;8.10;54.81;98994.66;10491829;28;20457;-68
2024/01/01 10:36:53;;;;;;;4.13;0.88;;;;;;;8.12;54.47;98999.78;10491921;28;20044;-68
2024/01/01 10:41:55;;;;;;;4.93;1.17;;;;;;;8.20;54.34;98994.91;10506393;28;20038;-69
2024/01/01 10:46:59;;;;;;;2.47;1.13;;;;;;;8.29;54.23;98996.91;10508714;28;20043;-68
2024/01/01 10:52:27;;;;;;;2.53;1.13;;;;;;;8.12;53.16;99000.59;10458321;28;20036;-68
2024/01/01 10:57:35;;;;;;;5.32;1.30;;;;;;;8.29;53.36;99002.97;10509588;28;20484;-68
2024/01/01 11:02:41;;;;;;;1.80;0.82;;;;;;;8.50;53.23;99006.78;10524273;28;20051;-68
2024/01/01 11:07:52;;;;;;;3.47;1.30;;;;;;;8.47;52.18;99006.97;10523911;28;20048;-68
2024/01/01 11:12:55;;;;;;;2.75;0.70;;;;;;;8.66;52.95;99012.66;10524143;28;20048;-68
2024/01/01 11:18:10;;;;;;;1.38;0.95;;;;;;;8.80;52.49;99029.97;10518702;28;20136;-68
2024/01/01 11:23:42;;;;;;;5.38;1.15;;;;;;;8.79;51.83;99025.69;10518722;28;20051;-68
2024/01/01 11:28:44;;;;;;;2.85;1.33;;;;;;;8.47;52.20;99026.97;10490176;28;20044;-68
2024/01/01 11:34:00;;;;;;;4.28;1.45;;;;;;;8.65;52.81;99031.81;10523775;28;20062;-68
2024/01/01 11:39:13;;;;;;;3.40;1.05;;;;;;;8.64;53.04;99040.59;10522652;28;20125;-68
2024/01/01 11:44:17;;;;;;;3.92;1.10;;;;;;;8.65;52.56;99044.00;10524830;28;20293;-68
2024/01/01 11:49:19;;;;;;;6.35;1.23;;;;;;;8.50;52.63;99032.84;10524088;28;20408;-69
2024/01/01 11:54:25;;;;;;;6.10;1.27;;;;;;;8.85;52.40;99033.13;10523116;28;20511;-68
2024/01/01 11:59:29;;;;;;;4.55;1.67;;;;;;;8.97;52.33;99031.44;10523611;28;20040;-68
2024/01/01 12:04:33;;;;;;;3.42;1.45;;;;;;;8.60;51.86;99026.09;10505111;28;20051;-68
2024/01/01 12:09:35;;;;;;;4.20;1.05;;;;;;;8.66;52.09;99028.28;10518879;28;20135;-68
2024/01/01 12:14:37;;;;;;;4.00;1.10;;;;;;;8.47;51.82;99045.22;10517302;28;20044;-68
2024/01/01 12:19:40;;;;;;;2.58;1.05;;;;;;;8.44;51.88;99029.78;10515891;28;20407;-68
2024/01/01 12:24:42;;;;;;;2.83;1.23;;;;;;;8.51;52.34;99044.06;10531194;28;20522;-68
2024/01/01 12:29:51;;;;;;;6.30;1.20;;;;;;;8.35;52.03;99036.44;10515707;28;20046;-68
2024/01/01 12:34:54;;;;;;;6.65;1.33;;;;;;;8.31;52.49;99042.78;10498208;28;20456;-68
2024/01/01 12:39:56;;;;;;;3.45;0.90;;;;;;;8.19;52.81;99066.16;10437634;28;20048;-69
2024/01/01 12:44:59;;;;;;;5.93;2.03;;;;;;;8.23;52.80;99060.66;10429617;28;20045;-68
2024/01/01 12:50:01;;;;;;;6.47;1.85;;;;;;;8.28;52.94;99062.97;10429395;28;20045;-69
2024/01/01 12:55:03;;;;;;;10.68;1.73;;;;;;;8.33;52.67;99066.09;10431621;28;20037;-68
2024/01/01 13:00:07;;;;;;;4.82;1.50;;;;;;;8.34;53.38;99073.00;10426866;28;20056;-68
2024/01/01 13:05:09;;;;;;;8.18;1.58;;;;;;;8.50;53.24;99078.91;10428051;28;20057;-69
2024/01/01 13:10:12;;;;;;;3.17;1.30;;;;;;;8.43;52.89;99075.00;10431011;28;20057;-68
2024/01/01 13:15:14;;;;;;;4.68;1.65;;;;;;;8.45;52.83;99076.59;10432600;28;20048;-68
2024/01/01 13:20:16;;;;;;;3.70;1.42;;;;;;;8.33;52.55;99068.72;10431379;28;20056;-68
2024/01/01 13:25:19;;;;;;;2.78;1.33;;;;;;;8.67;52.74;99074.25;10425481;28;20417;-68
2024/01/01 13:30:21;;;;;;;4.07;1.17;;;;;;;8.65;52.13;99072.66;10429403;28;20053;-68
2024/01/01 13:35:24;;;;;;;4.57;1.35;;;;;;;8.68;52.32;99075.94;10432224;28;20040;-68
2024/01/01 13:40:26;;;;;;;7.47;1.40;;;;;;;8.78;51.68;99069.19;10510190;28;20861;-68
2024/01/01 13:45:28;;;;;;;8.27;1.30;;;;;;;8.88;51.87;99066.78;10513854;28;20055;-68
2024/01/01 13:50:30;;;;;;;7.30;1.63;;;;;;;8.78;51.41;99086.59;10508810;28;20044;-69
2024/01/01 13:55:33;;;;;;;10.27;1.40;;;;;;;8.89;51.27;99085.88;10512990;28;20492;-68
2024/01/01 14:00:40;;;;;;;2.00;1.27;;;;;;;8.95;51.40;99082.88;10507185;28;20052;-68
2024/01/01 14:05:42;;;;;;;7.13;1.50;;;;;;;8.86;50.24;99102.56;10511954;28;20093;-69
2024/01/01 14:10:45;;;;;;;10.48;1.67;;;;;;;8.86;50.61;99102.56;10511666;28;20099;-68
2024/01/01 14:15:47;;;;;;;8.25;1.58;;;;;;;8.60;50.90;99098.22;10511967;28;20423;-67
2024/01/01 14:20:49;;;;;;;5.28;1.95;;;;;;;8.53;51.05;99108.19;10510595;28;20503;-67
2024/01/01 14:25:50;;;;;;;3.20;1.70;;;;;;;8.63;50.92;99098.84;10509175;28;20040;-67
2024/01/01 14:30:53;;;;;;;5.70;1.20;;;;;;;8.71;50.48;99101.78;10509949;28;20052;-67
2024/01/01 14:35:55;;;;;;;4.03;1.63;;;;;;;8.65;50.88;99111.78;10511320;28;20070;-67
2024/01/01 14:40:58;;;;;;;5.47;1.95;;;;;;;8.60;50.86;99119.91;10510675;28;20533;-68
2024/01/01 14:46:00;;;;;;;4.32;1.77;;;;;;;8.43;51.04;99124.50;10476489;28;20052;-67
2024/01/01 14:51:02;;;;;;;10.10;2.40;;;;;;;8.21;51.13;99135.47;10492721;28;20051;-68
2024/01/01 14:56:06;;;;;;;3.78;1.63;;;;;;;8.14;51.36;99148.97;10492121;28;20140;-68
2024/01/01 15:01:08;;;;;;;5.85;1.98;;;;;;;8.22;51.36;99146.72;10491903;28;20051;-67
2024/01/01 15:06:10;;;;;;;3.83;1.60;;;;;;;8.08;51.38;99150.13;10493647;28;20492;-67
2024/01/01 15:11:12;;;;;;;6.43;1.90;;;;;;;8.18;51.46;99147.84;10510003;28;20123;-67
2024/01/01 15:16:14;;;;;;;5.15;1.50;;;;;;;8.06;51.60;99161.59;10510152;28;20127;-67
2024/01/01 15:21:16;;;;;;;3.67;1.42;;;;;;;8.23;51.48;99149.22;10492375;28;20652;-67
2024/01/01 15:26:20;;;;;;;5.93;1.75;;;;;;;8.11;51.28;99149.16;10508571;28;20075;-68
2024/01/01 15:31:22;;;;;;;6.93;1.80;;;;;;;8.11;51.82;99146.53;10504286;28;20484;-67
2024/01/01 15:36:25;;;;;;;5.72;2.17;;;;;;;7.97;51.98;99152.56;10509800;28;20048;-67
2024/01/01 15:41:27;;;;;;;4.25;1.80;;;;;;;7.88;52.21;99163.53;10510286;28;20047;-68
2024/01/01 15:46:29;;;;;;;5.50;1.95;;;;;;;7.86;52.59;99166.25;10514667;28;20040;-67
2024/01/01 15:51:31;;;;;;;5.00;2.33;;;;;;;7.82;52.53;99166.50;10516901;28;20499;-68
2024/01/01 15:56:42;;;;;;;4.13;1.38;;;;;;;7.59;52.65;99178.28;10518095;28;20055;-68
2024/01/01 16:01:44;;;;;;;9.57;2.20;;;;;;;7.61;52.68;99160.03;10512233;28;20976;-67
2024/01/01 16:06:46;;;;;;;5.70;1.75;;;;;;;7.54;53.09;99175.16;10498555;28;20409;-67
2024/01/01 16:11:48;;;;;;;7.03;2.08;;;;;;;7.47;53.21;99186.84;10515978;28;20480;-68
2024/01/01 16:16:50;;;;;;;14.77;2.92;;;;;;;7.45;53.37;99195.69;10515198;28;20066;-68
2024/01/01 16:21:54;;;;;;;8.10;1.70;;;;;;;7.55;53.22;99205.44;10516062;28;20418;-67
2024/01/01 16:26:56;;;;;;;4.07;1.13;;;;;;;7.50;53.56;99199.69;10511828;28;20046;-69
2024/01/01 16:31:58;;;;;;;5.90;1.98;;;;;;;7.53;53.57;99209.88;10497733;28;20048;-67
2024/01/01 16:37:00;;;;;;;7.22;1.95;;;;;;;7.56;53.38;99214.94;10515870;28;20139;-69
2024/01/01 16:42:03;;;;;;;5.93;1.55;;;;;;;7.58;53.55;99212.22;10510416;28;20056;-68
2024/01/01 16:47:05;;;;;;;8.93;1.85;;;;;;;7.40;53.97;99214.16;10510252;28;20059;-70
2024/01/01 16:52:08;;;;;;;5.72;1.80;;;;;;;7.54;53.80;99224.59;10514559;28;20819;-66
2024/01/01 16:57:11;;;;;;;3.53;1.40;;;;;;;7.50;53.85;99222.25;10513867;28;20412;-66
2024/01/01 17:02:13;;;;;;;2.92;1.50;;;;;;;7.47;53.82;99228.47;10508911;28;20043;-67
2024/01/01 17:07:16;;;;;;;6.65;2.47;;;;;;;7.52;54.04;99223.00;10511900;28;20055;-68
2024/01/01 17:12:18;;;;;;;3.85;1.73;;;;;;;7.53;54.02;99222.09;10513510;28;20054;-67
2024/01/01 17:17:20;;;;;;;8.75;2.45;;;;;;;7.55;54.02;99220.22;10513935;28;20113;-67
2024/01/01 17:22:22;;;;;;;4.18;1.92;;;;;;;7.60;54.09;99232.03;10514509;28;20123;-67
2024/01/01 17:27:24;;;;;;;10.07;2.17;;;;;;;7.60;54.23;99239.84;10512650;28;20051;-67
2024/01/01 17:32:26;;;;;;;7.55;2.03;;;;;;;7.65;54.13;99235.19;10526935;27;20035;-65
2024/01/01 17:37:28;;;;;;;10.55;3.13;;;;;;;7.74;54.18;99245.06;10494541;28;20140;-67
2024/01/01 17:42:30;;;;;;;13.98;3.63;;;;;;;7.76;54.14;99238.00;10507386;28;20123;-67
2024/01/01 17:47:33;;;;;;;10.10;2.22;;;;;;;7.79;54.17;99248.22;10505356;28;20978;-67
2024/01/01 17:52:37;;;;;;;17.58;4.63;;;;;;;7.88;53.98;99255.50;10511599;28;20500;-67
2024/01/01 17:57:40;;;;;;;11.40;3.88;;;;;;;7.91;53.95;99250.13;10505662;28;20040;-67
2024/01/01 18:02:42;;;;;;;6.75;2.30;;;;;;;7.89;54.16;99262.41;10507962;28;20488;-66
2024/01/01 18:07:45;;;;;;;9.20;1.80;;;;;;;8.03;54.24;99262.41;10512562;28;20059;-67
2024/01/01 18:12:47;;;;;;;6.32;2.25;;;;;;;8.13;54.07;99260.13;10516678;28;20052;-66
2024/01/01 18:17:50;;;;;;;2.58;1.20;;;;;;;8.12;54.05;99255.81;10515137;28;20123;-67
2024/01/01 18:22:52;;;;;;;14.65;2.00;;;;;;;8.03;54.10;99265.00;10517075;28;20048;-66
2024/01/01 18:27:54;;;;;;;6.18;1.58;;;;;;;7.96;54.33;99250.66;10515962;28;20471;-67
2024/01/01 18:32:56;;;;;;;3.08;1.33;;;;;;;7.75;54.74;99257.13;10510403;28;20496;-67
2024/01/01 18:37:59;;;;;;;4.93;1.10;;;;;;;7.74;54.98;99250.28;10501075;28;20516;-68
2024/01/01 18:43:01;;;;;;;7.97;2.25;;;;;;;7.65;54.94;99250.81;10512117;28;20127;-67
2024/01/01 18:48:04;;;;;;;7.97;1.83;;;;;;;7.52;55.16;99251.63;10500944;28;20134;-67
2024/01/01 18:53:07;;;;;;;5.93;2.15;;;;;;;7.43;55.32;99239.97;10490173;28;20044;-67
2024/01/01 18:58:09;;;;;;;6.63;1.60;;;;;;;7.30;55.86;99243.38;10515668;28;20052;-67
2024/01/01 19:03:11;;;;;;;6.78;2.10;;;;;;;7.33;55.80;99241.44;10514024;28;20159;-67
2024/01/01 19:08:14;;;;;;;6.15;1.83;;;;;;;7.39;55.73;99248.03;10513189;28;20558;-67
2024/01/01 19:13:16;;;;;;;7.25;1.85;;;;;;;7.38;55.61;99252.41;10495970;28;20040;-67
2024/01/01 19:18:22;;;;;;;5.13;3.03;;;;;;;7.43;55.54;99247.78;10487727;28;20496;-67
2024/01/01 19:23:24;;;;;;;3.80;2.05;;;;;;;7.34;55.46;99237.06;10520443;28;20040;-67
2024/01/01 19:28:26;;;;;;;5.65;1.90;;;;;;;7.24;55.59;99234.16;10523086;28;20404;-66
2024/01/01 19:33:28;;;;;;;8.75;2.13;;;;;;;7.25;55.62;99230.63;10517057;28;20093;-66
2024/01/01 19:38:31;;;;;;;5.80;1.75;;;;;;;7.33;55.48;99232.78;10518587;28;20094;-66
2024/01/01 19:43:33;;;;;;;5.95;2.03;;;;;;;7.40;55.50;99214.16;10521777;28;20123;-66
2024/01/01 19:48:35;;;;;;;7.38;1.95;;;;;;;7.43;55.41;99215.72;10520725;28;20150;-66
2024/01/01 19:53:37;;;;;;;3.67;2.03;;;;;;;7.48;55.38;99224.94;10503898;28;20052;-66
2024/01/01 19:58:40;;;;;;;5.57;2.03;;;;;;;7.48;55.57;99219.75;10521919;28;20063;-66
2024/01/01 20:03:42;;;;;;;9.75;1.83;;;;;;;7.52;55.40;99225.59;10522240;28;20097;-64
2024/01/01 20:08:44;;;;;;;6.88;2.58;;;;;;;7.60;55.27;99216.41;10521306;28;20509;-67
2024/01/01 20:13:46;;;;;;;8.63;1.60;;;;;;;7.66;55.17;99213.44;10537279;27;20449;-66
2024/01/01 20:18:48;;;;;;;7.82;2.08;;;;;;;7.66;55.28;99199.59;10520841;28;20117;-67
2024/01/01 20:23:50;;;;;;;5.28;1.60;;;;;;;7.62;55.36;99209.34;10501544;28;20051;-66
2024/01/01 20:28:54;;;;;;;7.88;1.65;;;;;;;7.62;56.37;99198.09;10520294;28;20080;-67
2024/01/01 20:33:56;;;;;;;5.07;1.33;;;;;;;7.45;57.90;99195.69;10519069;28;20074;-66
2024/01/01 20:39:00;;;;;;;5.72;2.20;;;;;;;7.55;58.00;99191.59;10519774;28;20082;-66
2024/01/01 20:44:02;;;;;;;6.97;1.48;;;;;;;7.61;57.96;99180.84;10519435;28;20052;-68
2024/01/01 20:49:06;;;;;;;4.93;1.40;;;;;;;7.69;58.05;99165.59;10478335;28;20032;-67
2024/01/01 20:54:08;;;;;;;8.00;2.05;;;;;;;7.73;58.38;99164.47;10497436;28;20430;-67
2024/01/01 20:59:10;;;;;;;5.07;2.03;;;;;;;7.79;58.67;99153.69;10515386;28;20055;-66
2024/01/01 21:04:13;;;;;;;6.05;1.65;;;;;;;7.82;58.70;99137.88;10495136;28;20043;-67
2024/01/01 21:09:15;;;;;;;5.80;1.98;;;;;;;7.80;58.66;99144.94;10511710;28;20036;-66
2024/01/01 21:14:18;;;;;;;5.10;1.77;;;;;;;7.71;58.86;99127.31;10513209;28;20189;-65
2024/01/01 21:19:20;;;;;;;6.80;1.63;;;;;;;7.60;59.08;99122.75;10512832;28;20051;-66
2024/01/01 21:24:22;;;;;;;12.65;3.72;;;;;;;7.54;59.18;99124.88;10494800;28;20043;-67
2024/01/01 21:29:25;;;;;;;10.32;1.90;;;;;;;7.49;59.40;99125.13;10481836;28;20052;-66
2024/01/01 21:34:27;;;;;;;3.85;1.48;;;;;;;7.41;59.54;99119.56;10491988;28;20127;-67
2024/01/01 21:39:29;;;;;;;8.75;2.65;;;;;;;7.44;59.36;99103.78;10514152;28;20052;-67
2024/01/01 21:44:31;;;;;;;3.42;1.60;;;;;;;7.53;59.21;99110.19;10531500;28;20496;-67
2024/01/01 21:49:33;;;;;;;1.90;1.10;;;;;;;7.55;59.29;99113.56;10517682;28;20070;-64
2024/01/01 21:54:39;;;;;;;4.15;1.65;;;;;;;7.56;59.28;99110.00;10498566;28;20063;-64
2024/01/01 21:59:41;;;;;;;1.83;1.08;;;;;;;7.56;59.29;99108.25;10515977;28;20054;-65
2024/01/01 22:04:43;;;;;;;4.70;1.08;;;;;;;7.55;59.66;99098.75;10499267;28;20101;-64
2024/01/01 22:09:45;;;;;;;6.60;1.83;;;;;;;7.59;59.87;99104.63;10516739;28;20806;-64
2024/01/01 22:14:48;;;;;;;2.67;1.67;;;;;;;7.55;59.83;99098.75;10517009;28;20063;-66
2024/01/01 22:19:50;;;;;;;5.50;1.50;;;;;;;7.45;60.58;99100.25;10517375;28;20058;-66
2024/01/01 22:24:53;;;;;;;4.75;1.73;;;;;;;7.52;60.29;99096.34;10510273;28;20040;-67
2024/01/01 22:29:55;;;;;;;5.40;1.50;;;;;;;7.56;60.29;99103.03;10496489;28;20134;-67
2024/01/01 22:34:57;;;;;;;2.97;1.60;;;;;;;7.55;60.40;99088.34;10515006;28;20533;-66
2024/01/01 22:39:59;;;;;;;6.78;1.35;;;;;;;7.58;60.34;99084.72;10495494;28;20056;-66
2024/01/01 22:45:03;;;;;;;7.15;1.58;;;;;;;7.59;60.48;99087.22;10514038;28;20431;-67
2024/01/01 22:50:05;;;;;;;6.18;1.30;;;;;;;7.61;60.55;99077.56;10508825;28;20052;-65
2024/01/01 22:55:07;;;;;;;5.50;1.10;;;;;;;7.61;60.51;99072.34;10512993;28;20059;-66
2024/01/01 23:00:28;;;;;;;3.75;1.25;;;;;;;7.58;60.69;99062.16;10512644;28;20138;-67
2024/01/01 23:05:30;;;;;;;2.40;1.50;;;;;;;7.64;60.46;99051.38;10508675;28;20048;-67
2024/01/01 23:10:32;;;;;;;1.85;0.90;;;;;;;7.58;60.71;99035.28;10512790;28;20036;-66
2024/01/01 23:15:34;;;;;;;6.25;2.20;;;;;;;7.58;60.62;99020.53;10513588;28;20067;-66
2024/01/01 23:20:36;;;;;;;5.47;1.52;;;;;;;7.54;60.76;99013.00;10480518;28;20070;-66
2024/01/01 23:25:38;;;;;;;2.05;1.10;;;;;;;7.59;60.85;99000.56;10488998;28;20423;-66
2024/01/01 23:30:53;;;;;;;2.45;1.17;;;;;;;7.55;60.66;98988.66;10510897;28;20052;-66
2024/01/01 23:35:55;;;;;;;2.30;1.10;;;;;;;7.63;60.69;98992.44;10512621;28;20032;-66
2024/01/01 23:40:57;;;;;;;2.85;0.90;;;;;;;7.64;60.91;98972.47;10505227;28;20749;-66
2024/01/01 23:45:59;;;;;;;1.42;0.88;;;;;;;7.61;61.04;98972.66;10509911;28;20048;-66